sensor_id;sensor_type;location;lat;lon;timestamp;P1;durP1;ratioP1;P2;durP2;ratioP2
69401;SDS011;56589;51.992;5.924;2022-11-23T00:00:31;6.22;;;2.92;;
69401;SDS011;56589;51.992;5.924;2022-11-23T00:02:57;8.50;;;2.58;;
69401;SDS011;56589;51.992;5.924;2022-11-23T00:05:26;10.55;;;3.10;;
69401;SDS011;56589;51.992;5.924;2022-11-23T00:07:53;10.82;;;3.13;;
69401;SDS011;56589;51.992;5.924;2022-11-23T00:10:19;12.10;;;3.00;;
69401;SDS011;56589;51.992;5.924;2022-11-23T00:12:50;8.13;;;3.03;;
69401;SDS011;56589;51.992;5.924;2022-11-23T00:15:16;11.45;;;3.10;;
69401;SDS011;56589;51.992;5.924;2022-11-23T00:17:42;8.60;;;3.33;;
69401;SDS011;56589;51.992;5.924;2022-11-23T00:20:11;6.93;;;3.08;;
69401;SDS011;56589;51.992;5.924;2022-11-23T00:22:37;11.43;;;3.50;;
69401;SDS011;56589;51.992;5.924;2022-11-23T00:25:03;8.77;;;3.35;;
69401;SDS011;56589;51.992;5.924;2022-11-23T00:27:30;6.22;;;3.25;;
69401;SDS011;56589;51.992;5.924;2022-11-23T00:29:59;9.95;;;3.15;;
69401;SDS011;56589;51.992;5.924;2022-11-23T00:32:26;10.60;;;3.95;;
69401;SDS011;56589;51.992;5.924;2022-11-23T00:34:53;12.00;;;3.28;;
69401;SDS011;56589;51.992;5.924;2022-11-23T00:37:20;6.22;;;3.20;;
69401;SDS011;56589;51.992;5.924;2022-11-23T00:39:46;11.60;;;3.38;;
69401;SDS011;56589;51.992;5.924;2022-11-23T00:42:11;11.13;;;3.45;;
69401;SDS011;56589;51.992;5.924;2022-11-23T00:44:37;12.93;;;3.75;;
69401;SDS011;56589;51.992;5.924;2022-11-23T00:47:06;5.82;;;3.72;;
69401;SDS011;56589;51.992;5.924;2022-11-23T00:49:32;9.50;;;3.65;;
69401;SDS011;56589;51.992;5.924;2022-11-23T00:51:58;11.65;;;3.97;;
69401;SDS011;56589;51.992;5.924;2022-11-23T00:54:23;14.10;;;3.83;;
69401;SDS011;56589;51.992;5.924;2022-11-23T00:56:49;12.65;;;4.38;;
69401;SDS011;56589;51.992;5.924;2022-11-23T00:59:15;13.20;;;4.65;;
69401;SDS011;56589;51.992;5.924;2022-11-23T01:01:41;11.55;;;4.15;;
69401;SDS011;56589;51.992;5.924;2022-11-23T01:04:10;16.83;;;4.07;;
69401;SDS011;56589;51.992;5.924;2022-11-23T01:06:36;11.10;;;3.92;;
69401;SDS011;56589;51.992;5.924;2022-11-23T01:09:05;10.30;;;3.83;;
69401;SDS011;56589;51.992;5.924;2022-11-23T01:11:35;8.10;;;3.97;;
69401;SDS011;56589;51.992;5.924;2022-11-23T01:14:01;19.60;;;6.57;;
69401;SDS011;56589;51.992;5.924;2022-11-23T01:16:28;14.55;;;4.60;;
69401;SDS011;56589;51.992;5.924;2022-11-23T01:18:57;16.20;;;4.63;;
69401;SDS011;56589;51.992;5.924;2022-11-23T01:21:29;13.27;;;4.10;;
69401;SDS011;56589;51.992;5.924;2022-11-23T01:23:57;10.90;;;4.20;;
69401;SDS011;56589;51.992;5.924;2022-11-23T01:26:23;14.70;;;4.20;;
69401;SDS011;56589;51.992;5.924;2022-11-23T01:28:50;19.40;;;5.13;;
69401;SDS011;56589;51.992;5.924;2022-11-23T01:31:17;11.93;;;4.13;;
69401;SDS011;56589;51.992;5.924;2022-11-23T01:33:45;13.65;;;4.30;;
69401;SDS011;56589;51.992;5.924;2022-11-23T01:36:12;13.68;;;3.53;;
69401;SDS011;56589;51.992;5.924;2022-11-23T01:38:44;14.75;;;4.72;;
69401;SDS011;56589;51.992;5.924;2022-11-23T01:41:13;11.75;;;4.15;;
69401;SDS011;56589;51.992;5.924;2022-11-23T01:43:41;8.88;;;3.33;;
69401;SDS011;56589;51.992;5.924;2022-11-23T01:46:08;14.32;;;3.55;;
69401;SDS011;56589;51.992;5.924;2022-11-23T01:48:36;13.23;;;3.60;;
69401;SDS011;56589;51.992;5.924;2022-11-23T01:51:08;10.48;;;3.53;;
69401;SDS011;56589;51.992;5.924;2022-11-23T01:53:39;12.40;;;3.03;;
69401;SDS011;56589;51.992;5.924;2022-11-23T01:56:11;13.93;;;3.25;;
69401;SDS011;56589;51.992;5.924;2022-11-23T01:58:43;12.73;;;3.58;;
69401;SDS011;56589;51.992;5.924;2022-11-23T02:01:16;12.55;;;3.20;;
69401;SDS011;56589;51.992;5.924;2022-11-23T02:03:42;11.35;;;3.20;;
69401;SDS011;56589;51.992;5.924;2022-11-23T02:06:12;13.48;;;3.10;;
69401;SDS011;56589;51.992;5.924;2022-11-23T02:08:45;9.60;;;2.72;;
69401;SDS011;56589;51.992;5.924;2022-11-23T02:11:13;12.70;;;2.90;;
69401;SDS011;56589;51.992;5.924;2022-11-23T02:13:40;11.20;;;2.75;;
69401;SDS011;56589;51.992;5.924;2022-11-23T02:16:10;12.23;;;3.38;;
69401;SDS011;56589;51.992;5.924;2022-11-23T02:18:38;11.82;;;3.30;;
69401;SDS011;56589;51.992;5.924;2022-11-23T02:21:09;14.95;;;3.30;;
69401;SDS011;56589;51.992;5.924;2022-11-23T02:23:39;12.93;;;2.40;;
69401;SDS011;56589;51.992;5.924;2022-11-23T02:26:23;10.18;;;2.97;;
69401;SDS011;56589;51.992;5.924;2022-11-23T02:28:53;9.77;;;2.45;;
69401;SDS011;56589;51.992;5.924;2022-11-23T02:31:27;12.45;;;2.80;;
69401;SDS011;56589;51.992;5.924;2022-11-23T02:33:54;10.43;;;2.58;;
69401;SDS011;56589;51.992;5.924;2022-11-23T02:36:24;10.82;;;3.10;;
69401;SDS011;56589;51.992;5.924;2022-11-23T02:39:11;10.20;;;2.42;;
69401;SDS011;56589;51.992;5.924;2022-11-23T02:41:45;9.23;;;2.63;;
69401;SDS011;56589;51.992;5.924;2022-11-23T02:44:19;10.98;;;3.47;;
69401;SDS011;56589;51.992;5.924;2022-11-23T02:46:58;9.43;;;2.58;;
69401;SDS011;56589;51.992;5.924;2022-11-23T02:49:24;10.32;;;3.00;;
69401;SDS011;56589;51.992;5.924;2022-11-23T02:51:53;10.48;;;2.15;;
69401;SDS011;56589;51.992;5.924;2022-11-23T02:54:19;7.93;;;2.10;;
69401;SDS011;56589;51.992;5.924;2022-11-23T02:56:47;10.77;;;2.70;;
69401;SDS011;56589;51.992;5.924;2022-11-23T02:59:13;10.45;;;2.30;;
69401;SDS011;56589;51.992;5.924;2022-11-23T03:01:42;11.20;;;2.45;;
69401;SDS011;56589;51.992;5.924;2022-11-23T03:04:08;6.43;;;2.17;;
69401;SDS011;56589;51.992;5.924;2022-11-23T03:06:34;9.63;;;2.60;;
69401;SDS011;56589;51.992;5.924;2022-11-23T03:09:00;9.57;;;2.67;;
69401;SDS011;56589;51.992;5.924;2022-11-23T03:11:26;8.90;;;2.67;;
69401;SDS011;56589;51.992;5.924;2022-11-23T03:13:57;7.93;;;2.33;;
69401;SDS011;56589;51.992;5.924;2022-11-23T03:16:23;10.13;;;2.35;;
69401;SDS011;56589;51.992;5.924;2022-11-23T03:18:49;9.55;;;2.50;;
69401;SDS011;56589;51.992;5.924;2022-11-23T03:21:15;7.97;;;2.13;;
69401;SDS011;56589;51.992;5.924;2022-11-23T03:23:43;11.32;;;2.22;;
69401;SDS011;56589;51.992;5.924;2022-11-23T03:26:09;9.23;;;3.15;;
69401;SDS011;56589;51.992;5.924;2022-11-23T03:28:38;11.68;;;2.90;;
69401;SDS011;56589;51.992;5.924;2022-11-23T03:31:07;12.25;;;2.88;;
69401;SDS011;56589;51.992;5.924;2022-11-23T03:33:33;7.38;;;1.98;;
69401;SDS011;56589;51.992;5.924;2022-11-23T03:35:59;10.32;;;2.15;;
69401;SDS011;56589;51.992;5.924;2022-11-23T03:38:25;10.60;;;2.03;;
69401;SDS011;56589;51.992;5.924;2022-11-23T03:40:51;10.70;;;2.92;;
69401;SDS011;56589;51.992;5.924;2022-11-23T03:43:17;11.55;;;3.15;;
69401;SDS011;56589;51.992;5.924;2022-11-23T03:45:43;11.13;;;2.83;;
69401;SDS011;56589;51.992;5.924;2022-11-23T03:48:12;11.38;;;2.13;;
69401;SDS011;56589;51.992;5.924;2022-11-23T03:50:38;10.35;;;2.53;;
69401;SDS011;56589;51.992;5.924;2022-11-23T03:53:04;11.25;;;2.78;;
69401;SDS011;56589;51.992;5.924;2022-11-23T03:55:30;9.25;;;2.05;;
69401;SDS011;56589;51.992;5.924;2022-11-23T03:57:56;9.95;;;2.15;;
69401;SDS011;56589;51.992;5.924;2022-11-23T04:00:22;12.35;;;2.25;;
69401;SDS011;56589;51.992;5.924;2022-11-23T04:02:50;6.05;;;2.50;;
69401;SDS011;56589;51.992;5.924;2022-11-23T04:05:19;16.60;;;2.33;;
69401;SDS011;56589;51.992;5.924;2022-11-23T04:07:45;10.98;;;2.25;;
69401;SDS011;56589;51.992;5.924;2022-11-23T04:10:13;12.23;;;2.08;;
69401;SDS011;56589;51.992;5.924;2022-11-23T04:12:39;6.57;;;1.58;;
69401;SDS011;56589;51.992;5.924;2022-11-23T04:15:05;13.00;;;2.03;;
69401;SDS011;56589;51.992;5.924;2022-11-23T04:17:32;13.50;;;2.40;;
69401;SDS011;56589;51.992;5.924;2022-11-23T04:19:58;9.90;;;2.33;;
69401;SDS011;56589;51.992;5.924;2022-11-23T04:22:27;10.10;;;2.03;;
69401;SDS011;56589;51.992;5.924;2022-11-23T04:24:53;8.73;;;2.17;;
69401;SDS011;56589;51.992;5.924;2022-11-23T04:27:19;12.30;;;2.42;;
69401;SDS011;56589;51.992;5.924;2022-11-23T04:29:45;14.15;;;2.45;;
69401;SDS011;56589;51.992;5.924;2022-11-23T04:32:11;9.88;;;2.00;;
69401;SDS011;56589;51.992;5.924;2022-11-23T04:34:37;14.27;;;2.30;;
69401;SDS011;56589;51.992;5.924;2022-11-23T04:37:03;14.65;;;3.17;;
69401;SDS011;56589;51.992;5.924;2022-11-23T04:39:32;12.50;;;2.20;;
69401;SDS011;56589;51.992;5.924;2022-11-23T04:41:58;12.80;;;2.05;;
69401;SDS011;56589;51.992;5.924;2022-11-23T04:44:26;11.88;;;1.98;;
69401;SDS011;56589;51.992;5.924;2022-11-23T04:46:52;13.25;;;2.58;;
69401;SDS011;56589;51.992;5.924;2022-11-23T04:49:18;6.60;;;1.90;;
69401;SDS011;56589;51.992;5.924;2022-11-23T04:51:44;8.88;;;1.88;;
69401;SDS011;56589;51.992;5.924;2022-11-23T04:54:10;7.22;;;2.15;;
69401;SDS011;56589;51.992;5.924;2022-11-23T04:56:39;10.77;;;1.92;;
69401;SDS011;56589;51.992;5.924;2022-11-23T04:59:05;11.00;;;2.08;;
69401;SDS011;56589;51.992;5.924;2022-11-23T05:01:30;11.80;;;2.20;;
69401;SDS011;56589;51.992;5.924;2022-11-23T05:03:56;13.15;;;2.08;;
69401;SDS011;56589;51.992;5.924;2022-11-23T05:06:22;13.18;;;2.08;;
69401;SDS011;56589;51.992;5.924;2022-11-23T05:08:49;9.13;;;1.70;;
69401;SDS011;56589;51.992;5.924;2022-11-23T05:11:15;8.65;;;1.70;;
69401;SDS011;56589;51.992;5.924;2022-11-23T05:13:44;15.55;;;3.17;;
69401;SDS011;56589;51.992;5.924;2022-11-23T05:16:10;12.82;;;2.30;;
69401;SDS011;56589;51.992;5.924;2022-11-23T05:18:36;12.57;;;2.40;;
69401;SDS011;56589;51.992;5.924;2022-11-23T05:21:02;8.70;;;2.50;;
69401;SDS011;56589;51.992;5.924;2022-11-23T05:23:28;12.05;;;1.88;;
69401;SDS011;56589;51.992;5.924;2022-11-23T05:25:54;10.38;;;2.45;;
69401;SDS011;56589;51.992;5.924;2022-11-23T05:28:20;10.73;;;2.30;;
69401;SDS011;56589;51.992;5.924;2022-11-23T05:30:51;10.88;;;2.05;;
69401;SDS011;56589;51.992;5.924;2022-11-23T05:33:17;7.43;;;1.60;;
69401;SDS011;56589;51.992;5.924;2022-11-23T05:35:43;13.48;;;2.95;;
69401;SDS011;56589;51.992;5.924;2022-11-23T05:38:09;9.38;;;1.50;;
69401;SDS011;56589;51.992;5.924;2022-11-23T05:40:35;9.48;;;2.00;;
69401;SDS011;56589;51.992;5.924;2022-11-23T05:43:01;6.65;;;1.73;;
69401;SDS011;56589;51.992;5.924;2022-11-23T05:45:28;7.45;;;1.80;;
69401;SDS011;56589;51.992;5.924;2022-11-23T05:47:58;6.60;;;1.60;;
69401;SDS011;56589;51.992;5.924;2022-11-23T05:50:25;10.52;;;1.48;;
69401;SDS011;56589;51.992;5.924;2022-11-23T05:52:52;15.82;;;2.92;;
69401;SDS011;56589;51.992;5.924;2022-11-23T05:55:20;10.52;;;1.92;;
69401;SDS011;56589;51.992;5.924;2022-11-23T05:57:46;7.88;;;2.03;;
69401;SDS011;56589;51.992;5.924;2022-11-23T06:00:12;9.48;;;2.13;;
69401;SDS011;56589;51.992;5.924;2022-11-23T06:02:39;13.07;;;2.83;;
69401;SDS011;56589;51.992;5.924;2022-11-23T06:05:10;12.93;;;2.50;;
69401;SDS011;56589;51.992;5.924;2022-11-23T06:07:37;10.70;;;1.90;;
69401;SDS011;56589;51.992;5.924;2022-11-23T06:10:03;12.75;;;2.03;;
69401;SDS011;56589;51.992;5.924;2022-11-23T06:12:31;14.48;;;2.30;;
69401;SDS011;56589;51.992;5.924;2022-11-23T06:14:57;13.32;;;1.98;;
69401;SDS011;56589;51.992;5.924;2022-11-23T06:17:23;15.52;;;2.13;;
69401;SDS011;56589;51.992;5.924;2022-11-23T06:19:50;9.80;;;2.00;;
69401;SDS011;56589;51.992;5.924;2022-11-23T06:22:20;10.93;;;2.25;;
69401;SDS011;56589;51.992;5.924;2022-11-23T06:24:46;9.95;;;1.83;;
69401;SDS011;56589;51.992;5.924;2022-11-23T06:27:14;13.32;;;2.05;;
69401;SDS011;56589;51.992;5.924;2022-11-23T06:29:39;7.57;;;2.50;;
69401;SDS011;56589;51.992;5.924;2022-11-23T06:32:05;15.75;;;2.10;;
69401;SDS011;56589;51.992;5.924;2022-11-23T06:34:31;14.63;;;2.80;;
69401;SDS011;56589;51.992;5.924;2022-11-23T06:36:57;13.48;;;2.50;;
69401;SDS011;56589;51.992;5.924;2022-11-23T06:39:27;8.48;;;1.77;;
69401;SDS011;56589;51.992;5.924;2022-11-23T06:41:53;14.05;;;2.85;;
69401;SDS011;56589;51.992;5.924;2022-11-23T06:44:20;12.93;;;2.35;;
69401;SDS011;56589;51.992;5.924;2022-11-23T06:46:46;12.20;;;2.42;;
69401;SDS011;56589;51.992;5.924;2022-11-23T06:49:11;12.40;;;2.35;;
69401;SDS011;56589;51.992;5.924;2022-11-23T06:51:40;14.82;;;2.33;;
69401;SDS011;56589;51.992;5.924;2022-11-23T06:54:07;13.32;;;2.90;;
69401;SDS011;56589;51.992;5.924;2022-11-23T06:56:35;8.38;;;2.30;;
69401;SDS011;56589;51.992;5.924;2022-11-23T06:59:01;10.43;;;2.95;;
69401;SDS011;56589;51.992;5.924;2022-11-23T07:01:27;11.07;;;2.33;;
69401;SDS011;56589;51.992;5.924;2022-11-23T07:03:53;9.32;;;2.17;;
69401;SDS011;56589;51.992;5.924;2022-11-23T07:06:19;15.90;;;2.30;;
69401;SDS011;56589;51.992;5.924;2022-11-23T07:08:45;15.32;;;2.83;;
69401;SDS011;56589;51.992;5.924;2022-11-23T07:11:11;13.18;;;3.22;;
69401;SDS011;56589;51.992;5.924;2022-11-23T07:13:39;13.20;;;2.45;;
69401;SDS011;56589;51.992;5.924;2022-11-23T07:16:05;11.10;;;2.17;;
69401;SDS011;56589;51.992;5.924;2022-11-23T07:18:32;11.15;;;1.80;;
69401;SDS011;56589;51.992;5.924;2022-11-23T07:20:58;12.35;;;2.03;;
69401;SDS011;56589;51.992;5.924;2022-11-23T07:23:24;19.10;;;4.30;;
69401;SDS011;56589;51.992;5.924;2022-11-23T07:25:50;13.85;;;3.17;;
69401;SDS011;56589;51.992;5.924;2022-11-23T07:28:16;14.43;;;2.80;;
69401;SDS011;56589;51.992;5.924;2022-11-23T07:30:45;16.85;;;3.47;;
69401;SDS011;56589;51.992;5.924;2022-11-23T07:33:14;18.50;;;3.38;;
69401;SDS011;56589;51.992;5.924;2022-11-23T07:35:40;16.58;;;2.53;;
69401;SDS011;56589;51.992;5.924;2022-11-23T07:38:06;12.20;;;2.03;;
69401;SDS011;56589;51.992;5.924;2022-11-23T07:40:32;13.23;;;2.15;;
69401;SDS011;56589;51.992;5.924;2022-11-23T07:42:59;16.17;;;2.22;;
69401;SDS011;56589;51.992;5.924;2022-11-23T07:45:26;13.48;;;2.80;;
69401;SDS011;56589;51.992;5.924;2022-11-23T07:47:59;16.30;;;2.38;;
69401;SDS011;56589;51.992;5.924;2022-11-23T07:50:26;14.95;;;2.88;;
69401;SDS011;56589;51.992;5.924;2022-11-23T07:52:52;13.05;;;2.15;;
69401;SDS011;56589;51.992;5.924;2022-11-23T07:55:18;8.07;;;1.90;;
69401;SDS011;56589;51.992;5.924;2022-11-23T07:57:44;17.20;;;2.15;;
69401;SDS011;56589;51.992;5.924;2022-11-23T08:00:10;12.60;;;1.92;;
69401;SDS011;56589;51.992;5.924;2022-11-23T08:02:37;13.38;;;2.75;;
69401;SDS011;56589;51.992;5.924;2022-11-23T08:05:06;16.10;;;2.50;;
69401;SDS011;56589;51.992;5.924;2022-11-23T08:07:33;12.93;;;2.10;;
69401;SDS011;56589;51.992;5.924;2022-11-23T08:09:59;11.85;;;2.10;;
69401;SDS011;56589;51.992;5.924;2022-11-23T08:12:24;12.73;;;2.05;;
69401;SDS011;56589;51.992;5.924;2022-11-23T08:14:51;15.77;;;3.33;;
69401;SDS011;56589;51.992;5.924;2022-11-23T08:17:16;17.52;;;2.47;;
69401;SDS011;56589;51.992;5.924;2022-11-23T08:19:42;13.27;;;2.60;;
69401;SDS011;56589;51.992;5.924;2022-11-23T08:22:11;13.93;;;2.22;;
69401;SDS011;56589;51.992;5.924;2022-11-23T08:24:37;13.25;;;2.00;;
69401;SDS011;56589;51.992;5.924;2022-11-23T08:27:02;12.45;;;2.15;;
69401;SDS011;56589;51.992;5.924;2022-11-23T08:29:29;12.27;;;2.63;;
69401;SDS011;56589;51.992;5.924;2022-11-23T08:31:55;11.05;;;2.15;;
69401;SDS011;56589;51.992;5.924;2022-11-23T08:34:20;16.17;;;2.42;;
69401;SDS011;56589;51.992;5.924;2022-11-23T08:36:46;13.65;;;2.28;;
69401;SDS011;56589;51.992;5.924;2022-11-23T08:39:15;8.45;;;1.60;;
69401;SDS011;56589;51.992;5.924;2022-11-23T08:41:40;16.35;;;2.25;;
69401;SDS011;56589;51.992;5.924;2022-11-23T08:44:06;10.95;;;2.15;;
69401;SDS011;56589;51.992;5.924;2022-11-23T08:46:32;13.18;;;2.10;;
69401;SDS011;56589;51.992;5.924;2022-11-23T08:48:58;17.35;;;3.05;;
69401;SDS011;56589;51.992;5.924;2022-11-23T08:51:24;10.77;;;2.22;;
69401;SDS011;56589;51.992;5.924;2022-11-23T08:53:49;10.52;;;1.70;;
69401;SDS011;56589;51.992;5.924;2022-11-23T08:56:18;9.90;;;2.38;;
69401;SDS011;56589;51.992;5.924;2022-11-23T08:58:44;13.95;;;2.20;;
69401;SDS011;56589;51.992;5.924;2022-11-23T09:01:10;19.48;;;2.95;;
69401;SDS011;56589;51.992;5.924;2022-11-23T09:03:39;13.68;;;1.70;;
69401;SDS011;56589;51.992;5.924;2022-11-23T09:06:06;15.88;;;1.90;;
69401;SDS011;56589;51.992;5.924;2022-11-23T09:08:33;17.42;;;3.40;;
69401;SDS011;56589;51.992;5.924;2022-11-23T09:11:00;11.45;;;1.83;;
69401;SDS011;56589;51.992;5.924;2022-11-23T09:13:30;14.20;;;2.08;;
69401;SDS011;56589;51.992;5.924;2022-11-23T09:15:56;12.32;;;2.50;;
69401;SDS011;56589;51.992;5.924;2022-11-23T09:18:22;11.05;;;1.90;;
69401;SDS011;56589;51.992;5.924;2022-11-23T09:20:48;12.00;;;2.08;;
69401;SDS011;56589;51.992;5.924;2022-11-23T09:23:14;18.90;;;2.28;;
69401;SDS011;56589;51.992;5.924;2022-11-23T09:25:40;13.30;;;2.30;;
69401;SDS011;56589;51.992;5.924;2022-11-23T09:28:06;14.55;;;2.33;;
69401;SDS011;56589;51.992;5.924;2022-11-23T09:30:34;11.77;;;2.10;;
69401;SDS011;56589;51.992;5.924;2022-11-23T09:33:00;12.55;;;1.80;;
69401;SDS011;56589;51.992;5.924;2022-11-23T09:35:26;11.95;;;2.00;;
69401;SDS011;56589;51.992;5.924;2022-11-23T09:37:56;9.27;;;2.55;;
69401;SDS011;56589;51.992;5.924;2022-11-23T09:40:22;14.25;;;2.50;;
69401;SDS011;56589;51.992;5.924;2022-11-23T09:42:56;10.95;;;2.03;;
69401;SDS011;56589;51.992;5.924;2022-11-23T09:45:45;12.10;;;2.22;;
69401;SDS011;56589;51.992;5.924;2022-11-23T09:48:21;14.10;;;2.47;;
69401;SDS011;56589;51.992;5.924;2022-11-23T09:51:08;15.98;;;2.20;;
69401;SDS011;56589;51.992;5.924;2022-11-23T09:53:41;9.07;;;1.65;;
69401;SDS011;56589;51.992;5.924;2022-11-23T09:56:15;11.15;;;2.00;;
69401;SDS011;56589;51.992;5.924;2022-11-23T09:58:45;10.45;;;2.15;;
69401;SDS011;56589;51.992;5.924;2022-11-23T10:01:18;9.50;;;1.98;;
69401;SDS011;56589;51.992;5.924;2022-11-23T10:03:44;12.90;;;2.30;;
69401;SDS011;56589;51.992;5.924;2022-11-23T10:06:14;10.40;;;2.45;;
69401;SDS011;56589;51.992;5.924;2022-11-23T10:08:46;16.23;;;2.00;;
69401;SDS011;56589;51.992;5.924;2022-11-23T10:11:38;9.93;;;1.70;;
69401;SDS011;56589;51.992;5.924;2022-11-23T10:14:27;12.38;;;2.13;;
69401;SDS011;56589;51.992;5.924;2022-11-23T10:17:19;11.45;;;1.77;;
69401;SDS011;56589;51.992;5.924;2022-11-23T10:20:06;10.30;;;2.05;;
69401;SDS011;56589;51.992;5.924;2022-11-23T10:22:51;9.57;;;1.83;;
69401;SDS011;56589;51.992;5.924;2022-11-23T10:25:23;15.17;;;2.67;;
69401;SDS011;56589;51.992;5.924;2022-11-23T10:27:53;11.00;;;1.92;;
69401;SDS011;56589;51.992;5.924;2022-11-23T10:30:25;12.93;;;1.90;;
69401;SDS011;56589;51.992;5.924;2022-11-23T10:32:55;10.60;;;1.73;;
69401;SDS011;56589;51.992;5.924;2022-11-23T10:35:31;9.85;;;1.70;;
69401;SDS011;56589;51.992;5.924;2022-11-23T10:38:08;12.43;;;1.60;;
69401;SDS011;56589;51.992;5.924;2022-11-23T10:40:37;11.50;;;2.00;;
69401;SDS011;56589;51.992;5.924;2022-11-23T10:43:11;15.45;;;1.92;;
69401;SDS011;56589;51.992;5.924;2022-11-23T10:45:43;10.82;;;1.90;;
69401;SDS011;56589;51.992;5.924;2022-11-23T10:48:12;10.00;;;2.67;;
69401;SDS011;56589;51.992;5.924;2022-11-23T10:50:59;6.93;;;1.55;;
69401;SDS011;56589;51.992;5.924;2022-11-23T10:53:41;12.13;;;1.98;;
69401;SDS011;56589;51.992;5.924;2022-11-23T10:56:10;8.57;;;1.63;;
69401;SDS011;56589;51.992;5.924;2022-11-23T10:58:40;9.13;;;1.80;;
69401;SDS011;56589;51.992;5.924;2022-11-23T11:01:11;10.90;;;2.05;;
69401;SDS011;56589;51.992;5.924;2022-11-23T11:03:42;10.05;;;1.48;;
69401;SDS011;56589;51.992;5.924;2022-11-23T11:06:08;9.65;;;1.50;;
69401;SDS011;56589;51.992;5.924;2022-11-23T11:08:48;11.10;;;1.63;;
69401;SDS011;56589;51.992;5.924;2022-11-23T11:11:23;16.45;;;2.28;;
69401;SDS011;56589;51.992;5.924;2022-11-23T11:13:52;7.38;;;1.20;;
69401;SDS011;56589;51.992;5.924;2022-11-23T11:16:29;10.43;;;1.30;;
69401;SDS011;56589;51.992;5.924;2022-11-23T11:19:01;13.35;;;2.17;;
69401;SDS011;56589;51.992;5.924;2022-11-23T11:21:50;7.43;;;1.50;;
69401;SDS011;56589;51.992;5.924;2022-11-23T11:24:16;9.98;;;1.75;;
69401;SDS011;56589;51.992;5.924;2022-11-23T11:26:51;11.38;;;1.60;;
69401;SDS011;56589;51.992;5.924;2022-11-23T11:29:27;13.13;;;1.70;;
69401;SDS011;56589;51.992;5.924;2022-11-23T11:31:58;10.85;;;1.60;;
69401;SDS011;56589;51.992;5.924;2022-11-23T11:34:34;7.85;;;1.60;;
69401;SDS011;56589;51.992;5.924;2022-11-23T11:37:11;10.48;;;1.63;;
69401;SDS011;56589;51.992;5.924;2022-11-23T11:39:51;10.77;;;2.05;;
69401;SDS011;56589;51.992;5.924;2022-11-23T11:42:26;10.90;;;1.77;;
69401;SDS011;56589;51.992;5.924;2022-11-23T11:45:06;12.20;;;1.73;;
69401;SDS011;56589;51.992;5.924;2022-11-23T11:47:42;5.72;;;1.27;;
69401;SDS011;56589;51.992;5.924;2022-11-23T11:50:22;7.43;;;1.70;;
69401;SDS011;56589;51.992;5.924;2022-11-23T11:52:53;5.68;;;1.30;;
69401;SDS011;56589;51.992;5.924;2022-11-23T11:55:27;8.90;;;1.65;;
69401;SDS011;56589;51.992;5.924;2022-11-23T11:58:08;7.78;;;1.02;;
69401;SDS011;56589;51.992;5.924;2022-11-23T12:00:38;8.20;;;1.40;;
69401;SDS011;56589;51.992;5.924;2022-11-23T12:03:11;10.98;;;1.80;;
69401;SDS011;56589;51.992;5.924;2022-11-23T12:05:54;10.32;;;1.52;;
69401;SDS011;56589;51.992;5.924;2022-11-23T12:08:32;7.88;;;1.25;;
69401;SDS011;56589;51.992;5.924;2022-11-23T12:11:10;5.07;;;1.40;;
69401;SDS011;56589;51.992;5.924;2022-11-23T12:13:37;6.43;;;1.27;;
69401;SDS011;56589;51.992;5.924;2022-11-23T12:16:09;6.32;;;1.20;;
69401;SDS011;56589;51.992;5.924;2022-11-23T12:18:52;5.00;;;0.90;;
69401;SDS011;56589;51.992;5.924;2022-11-23T12:24:52;9.15;;;1.60;;
69401;SDS011;56589;51.992;5.924;2022-11-23T12:27:35;5.47;;;1.23;;
69401;SDS011;56589;51.992;5.924;2022-11-23T12:30:15;7.30;;;1.23;;
69401;SDS011;56589;51.992;5.924;2022-11-23T12:32:58;5.22;;;0.90;;
69401;SDS011;56589;51.992;5.924;2022-11-23T12:36:02;8.63;;;1.17;;
69401;SDS011;56589;51.992;5.924;2022-11-23T12:38:59;5.03;;;1.30;;
69401;SDS011;56589;51.992;5.924;2022-11-23T12:41:41;6.32;;;0.93;;
69401;SDS011;56589;51.992;5.924;2022-11-23T12:44:30;5.53;;;0.90;;
69401;SDS011;56589;51.992;5.924;2022-11-23T12:47:15;8.40;;;1.20;;
69401;SDS011;56589;51.992;5.924;2022-11-23T12:49:59;8.27;;;1.70;;
69401;SDS011;56589;51.992;5.924;2022-11-23T12:52:50;5.80;;;1.55;;
69401;SDS011;56589;51.992;5.924;2022-11-23T12:55:37;7.25;;;1.25;;
69401;SDS011;56589;51.992;5.924;2022-11-23T12:58:16;8.88;;;1.38;;
69401;SDS011;56589;51.992;5.924;2022-11-23T13:00:47;7.55;;;1.23;;
69401;SDS011;56589;51.992;5.924;2022-11-23T13:03:25;9.70;;;1.40;;
69401;SDS011;56589;51.992;5.924;2022-11-23T13:06:38;5.25;;;1.42;;
69401;SDS011;56589;51.992;5.924;2022-11-23T13:09:35;6.50;;;1.60;;
69401;SDS011;56589;51.992;5.924;2022-11-23T13:12:31;5.68;;;1.02;;
69401;SDS011;56589;51.992;5.924;2022-11-23T13:15:25;5.38;;;1.08;;
69401;SDS011;56589;51.992;5.924;2022-11-23T13:18:12;4.30;;;0.90;;
69401;SDS011;56589;51.992;5.924;2022-11-23T13:21:05;6.57;;;0.95;;
69401;SDS011;56589;51.992;5.924;2022-11-23T13:23:47;2.17;;;0.70;;
69401;SDS011;56589;51.992;5.924;2022-11-23T13:26:14;7.72;;;1.70;;
69401;SDS011;56589;51.992;5.924;2022-11-23T13:28:45;10.32;;;1.10;;
69401;SDS011;56589;51.992;5.924;2022-11-23T13:31:19;5.45;;;0.93;;
69401;SDS011;56589;51.992;5.924;2022-11-23T13:33:49;4.30;;;0.70;;
69401;SDS011;56589;51.992;5.924;2022-11-23T13:42:30;6.07;;;0.80;;
69401;SDS011;56589;51.992;5.924;2022-11-23T13:48:09;7.32;;;1.10;;
69401;SDS011;56589;51.992;5.924;2022-11-23T13:50:54;5.57;;;1.08;;
69401;SDS011;56589;51.992;5.924;2022-11-23T13:53:24;7.60;;;1.10;;
69401;SDS011;56589;51.992;5.924;2022-11-23T13:55:55;2.50;;;0.80;;
69401;SDS011;56589;51.992;5.924;2022-11-23T13:58:40;4.55;;;0.82;;
69401;SDS011;56589;51.992;5.924;2022-11-23T14:04:47;7.65;;;1.20;;
69401;SDS011;56589;51.992;5.924;2022-11-23T14:07:14;5.53;;;1.20;;
69401;SDS011;56589;51.992;5.924;2022-11-23T14:09:48;9.50;;;2.50;;
69401;SDS011;56589;51.992;5.924;2022-11-23T14:12:22;5.15;;;0.80;;
69401;SDS011;56589;51.992;5.924;2022-11-23T14:15:00;7.53;;;1.30;;
69401;SDS011;56589;51.992;5.924;2022-11-23T14:17:45;6.78;;;1.00;;
69401;SDS011;56589;51.992;5.924;2022-11-23T14:21:05;5.38;;;0.90;;
69401;SDS011;56589;51.992;5.924;2022-11-23T14:23:45;9.93;;;1.52;;
69401;SDS011;56589;51.992;5.924;2022-11-23T14:26:49;5.32;;;1.30;;
69401;SDS011;56589;51.992;5.924;2022-11-23T14:29:36;6.13;;;1.48;;
69401;SDS011;56589;51.992;5.924;2022-11-23T14:32:30;8.32;;;1.10;;
69401;SDS011;56589;51.992;5.924;2022-11-23T14:35:18;2.38;;;0.70;;
69401;SDS011;56589;51.992;5.924;2022-11-23T14:41:14;5.53;;;1.77;;
69401;SDS011;56589;51.992;5.924;2022-11-23T14:43:45;4.20;;;0.77;;
69401;SDS011;56589;51.992;5.924;2022-11-23T14:46:13;4.22;;;0.93;;
69401;SDS011;56589;51.992;5.924;2022-11-23T14:48:41;5.78;;;1.35;;
69401;SDS011;56589;51.992;5.924;2022-11-23T14:51:13;6.10;;;0.85;;
69401;SDS011;56589;51.992;5.924;2022-11-23T14:53:43;8.45;;;0.80;;
69401;SDS011;56589;51.992;5.924;2022-11-23T14:56:20;6.90;;;2.03;;
69401;SDS011;56589;51.992;5.924;2022-11-23T14:58:57;6.78;;;1.10;;
69401;SDS011;56589;51.992;5.924;2022-11-23T15:01:28;6.00;;;1.05;;
69401;SDS011;56589;51.992;5.924;2022-11-23T15:04:05;9.93;;;1.75;;
69401;SDS011;56589;51.992;5.924;2022-11-23T15:06:38;7.30;;;1.10;;
69401;SDS011;56589;51.992;5.924;2022-11-23T15:09:14;5.93;;;1.20;;
69401;SDS011;56589;51.992;5.924;2022-11-23T15:12:04;5.20;;;0.85;;
69401;SDS011;56589;51.992;5.924;2022-11-23T15:14:34;4.70;;;1.00;;
69401;SDS011;56589;51.992;5.924;2022-11-23T15:17:14;6.65;;;1.90;;
69401;SDS011;56589;51.992;5.924;2022-11-23T15:19:42;5.28;;;1.00;;
69401;SDS011;56589;51.992;5.924;2022-11-23T15:22:15;8.70;;;1.40;;